Etusivu
METAR-TAF:

METAR-TAF

Lentoasemat :

Boscobel Airport

Boscobel, Wisconsin, Yhdysvallat

Leveyspiiri: 43-09-22N, Pituuspiiri: 090-40-39W, korkeus merenpinnasta: 205 m

Tämänhetkinen sää

Tämä raportti tehtiin 57 minuuttia sitten, kello 22.53 UTC
tyyntä
Lämpötila 12°C
Kosteus 82%
Ilmanpaine 1009 hPa
Näkyvyys: 16.1 km
Hajonneita pilviä 6000 ft:n korkeudessa
Pilvistä 7500 ft:n korkeudessa

METAR: KOVS 252253Z AUTO 00000KT 10SM BKN060 OVC075 12/09 A2981 RMK AO2 RAE47 SLP098 P0002 T01170089

Aika: 18:50 (23:50 UTC)


TAF: puuttuu

Säähavainnot ja -ennusteet yli 4000 lentoasemalta (METAR- ja TAF-raportit).

Käytössä olevat sääasemat on merkitty karttaan keltaisilla ja punaisilla pisteillä.

Aseta hiiri pisteen päälle nähdäksesi sääaseman nimen.

Klikkaa sitten nähdäksesi säähavainnot ja -ennusteet.

Kartan vaihtaminen: klikkaa mustalla rastilla varustettuja vihreitä pisteitä, niin voit zoomata sisään; viivalla varustettua vihreää pistettä, niin voit zoomata ulos tai vihreitä nuolia, niin pääset viereisille kartoille.


METAR-TAF: